sensor_id;sensor_type;location;lat;lon;timestamp;temperature;humidity
52799;DHT22;38667;42.872;74.622;2023-03-01T00:01:21;2.60;54.30
52799;DHT22;38667;42.872;74.622;2023-03-01T00:03:48;2.60;52.40
52799;DHT22;38667;42.872;74.622;2023-03-01T00:06:14;2.60;53.80
52799;DHT22;38667;42.872;74.622;2023-03-01T00:08:41;2.50;54.00
52799;DHT22;38667;42.872;74.622;2023-03-01T00:11:09;2.50;53.60
52799;DHT22;38667;42.872;74.622;2023-03-01T00:13:36;2.40;53.20
52799;DHT22;38667;42.872;74.622;2023-03-01T00:16:05;2.30;54.50
52799;DHT22;38667;42.872;74.622;2023-03-01T00:18:32;2.20;53.50
52799;DHT22;38667;42.872;74.622;2023-03-01T00:20:58;2.20;53.70
52799;DHT22;38667;42.872;74.622;2023-03-01T00:23:25;2.20;55.10
52799;DHT22;38667;42.872;74.622;2023-03-01T00:25:51;2.20;53.30
52799;DHT22;38667;42.872;74.622;2023-03-01T00:28:18;2.20;53.20
52799;DHT22;38667;42.872;74.622;2023-03-01T00:30:44;2.30;53.20
52799;DHT22;38667;42.872;74.622;2023-03-01T00:33:12;2.30;53.40
52799;DHT22;38667;42.872;74.622;2023-03-01T00:35:39;2.40;51.90
52799;DHT22;38667;42.872;74.622;2023-03-01T00:38:05;2.40;51.30
52799;DHT22;38667;42.872;74.622;2023-03-01T00:40:34;2.50;51.50
52799;DHT22;38667;42.872;74.622;2023-03-01T00:43:01;2.40;51.90
52799;DHT22;38667;42.872;74.622;2023-03-01T00:45:27;2.40;52.00
52799;DHT22;38667;42.872;74.622;2023-03-01T00:47:54;2.30;51.80
52799;DHT22;38667;42.872;74.622;2023-03-01T00:50:21;2.30;50.20
52799;DHT22;38667;42.872;74.622;2023-03-01T00:52:52;2.40;52.70
52799;DHT22;38667;42.872;74.622;2023-03-01T00:55:18;2.40;51.80
52799;DHT22;38667;42.872;74.622;2023-03-01T00:57:45;2.40;52.00
52799;DHT22;38667;42.872;74.622;2023-03-01T01:00:12;2.50;52.80
52799;DHT22;38667;42.872;74.622;2023-03-01T01:02:38;2.40;53.30
52799;DHT22;38667;42.872;74.622;2023-03-01T01:05:05;2.50;52.20
52799;DHT22;38667;42.872;74.622;2023-03-01T01:07:33;2.60;48.20
52799;DHT22;38667;42.872;74.622;2023-03-01T01:10:00;2.70;48.10
52799;DHT22;38667;42.872;74.622;2023-03-01T01:12:26;2.80;48.60
52799;DHT22;38667;42.872;74.622;2023-03-01T01:14:52;2.80;50.50
52799;DHT22;38667;42.872;74.622;2023-03-01T01:17:18;2.70;50.20
52799;DHT22;38667;42.872;74.622;2023-03-01T01:19:45;2.70;50.10
52799;DHT22;38667;42.872;74.622;2023-03-01T01:22:11;2.60;51.00
52799;DHT22;38667;42.872;74.622;2023-03-01T01:24:39;2.60;49.00
52799;DHT22;38667;42.872;74.622;2023-03-01T01:27:05;2.70;50.00
52799;DHT22;38667;42.872;74.622;2023-03-01T01:29:31;2.90;48.00
52799;DHT22;38667;42.872;74.622;2023-03-01T01:31:57;2.90;46.90
52799;DHT22;38667;42.872;74.622;2023-03-01T01:34:24;3.00;46.60
52799;DHT22;38667;42.872;74.622;2023-03-01T01:36:51;3.00;47.90
52799;DHT22;38667;42.872;74.622;2023-03-01T01:39:17;2.90;47.30
52799;DHT22;38667;42.872;74.622;2023-03-01T01:41:45;2.90;47.70
52799;DHT22;38667;42.872;74.622;2023-03-01T01:44:18;3.00;47.30
52799;DHT22;38667;42.872;74.622;2023-03-01T01:46:47;2.90;48.00
52799;DHT22;38667;42.872;74.622;2023-03-01T01:49:23;3.20;39.60
52799;DHT22;38667;42.872;74.622;2023-03-01T01:51:53;3.70;36.40
52799;DHT22;38667;42.872;74.622;2023-03-01T01:54:24;4.20;34.40
52799;DHT22;38667;42.872;74.622;2023-03-01T01:56:57;4.50;34.50
52799;DHT22;38667;42.872;74.622;2023-03-01T01:59:25;4.60;35.60
52799;DHT22;38667;42.872;74.622;2023-03-01T02:01:53;4.70;33.50
52799;DHT22;38667;42.872;74.622;2023-03-01T02:04:20;4.90;32.30
52799;DHT22;38667;42.872;74.622;2023-03-01T02:06:49;5.00;37.40
52799;DHT22;38667;42.872;74.622;2023-03-01T02:09:21;4.70;41.20
52799;DHT22;38667;42.872;74.622;2023-03-01T02:11:50;4.20;42.40
52799;DHT22;38667;42.872;74.622;2023-03-01T02:14:18;3.90;41.20
52799;DHT22;38667;42.872;74.622;2023-03-01T02:16:45;4.20;40.30
52799;DHT22;38667;42.872;74.622;2023-03-01T02:19:19;4.20;41.60
52799;DHT22;38667;42.872;74.622;2023-03-01T02:21:55;4.00;43.90
52799;DHT22;38667;42.872;74.622;2023-03-01T02:24:29;4.00;43.60
52799;DHT22;38667;42.872;74.622;2023-03-01T02:26:59;3.90;44.40
52799;DHT22;38667;42.872;74.622;2023-03-01T02:29:28;3.80;43.50
52799;DHT22;38667;42.872;74.622;2023-03-01T02:31:56;3.80;43.50
52799;DHT22;38667;42.872;74.622;2023-03-01T02:34:25;3.90;43.50
52799;DHT22;38667;42.872;74.622;2023-03-01T02:36:55;4.00;44.40
52799;DHT22;38667;42.872;74.622;2023-03-01T02:39:25;4.10;43.30
52799;DHT22;38667;42.872;74.622;2023-03-01T02:41:53;4.20;44.20
52799;DHT22;38667;42.872;74.622;2023-03-01T02:44:21;4.30;41.50
52799;DHT22;38667;42.872;74.622;2023-03-01T02:46:50;4.50;42.30
52799;DHT22;38667;42.872;74.622;2023-03-01T02:49:20;4.60;42.80
52799;DHT22;38667;42.872;74.622;2023-03-01T02:52:01;4.80;41.70
52799;DHT22;38667;42.872;74.622;2023-03-01T02:54:36;5.00;40.70
52799;DHT22;38667;42.872;74.622;2023-03-01T02:57:05;5.20;38.90
52799;DHT22;38667;42.872;74.622;2023-03-01T02:59:33;5.30;39.30
52799;DHT22;38667;42.872;74.622;2023-03-01T03:02:02;5.40;39.60
52799;DHT22;38667;42.872;74.622;2023-03-01T03:04:28;5.50;38.40
52799;DHT22;38667;42.872;74.622;2023-03-01T03:06:55;5.80;37.50
52799;DHT22;38667;42.872;74.622;2023-03-01T03:09:21;6.10;30.60
52799;DHT22;38667;42.872;74.622;2023-03-01T03:11:47;6.60;30.60
52799;DHT22;38667;42.872;74.622;2023-03-01T03:14:15;6.70;34.60
52799;DHT22;38667;42.872;74.622;2023-03-01T03:16:42;6.80;34.60
52799;DHT22;38667;42.872;74.622;2023-03-01T03:19:11;6.70;33.60
52799;DHT22;38667;42.872;74.622;2023-03-01T03:21:37;6.80;33.80
52799;DHT22;38667;42.872;74.622;2023-03-01T03:24:04;6.90;32.40
52799;DHT22;38667;42.872;74.622;2023-03-01T03:26:30;7.10;31.70
52799;DHT22;38667;42.872;74.622;2023-03-01T03:28:57;7.20;31.60
52799;DHT22;38667;42.872;74.622;2023-03-01T03:31:23;7.30;31.40
52799;DHT22;38667;42.872;74.622;2023-03-01T03:33:49;7.50;31.90
52799;DHT22;38667;42.872;74.622;2023-03-01T03:36:19;7.70;32.40
52799;DHT22;38667;42.872;74.622;2023-03-01T03:38:46;7.80;32.40
52799;DHT22;38667;42.872;74.622;2023-03-01T03:41:13;7.90;33.00
52799;DHT22;38667;42.872;74.622;2023-03-01T03:43:40;8.10;32.80
52799;DHT22;38667;42.872;74.622;2023-03-01T03:46:08;8.30;33.20
52799;DHT22;38667;42.872;74.622;2023-03-01T03:48:35;8.40;32.60
52799;DHT22;38667;42.872;74.622;2023-03-01T03:51:02;8.60;31.50
52799;DHT22;38667;42.872;74.622;2023-03-01T03:53:30;8.70;31.50
52799;DHT22;38667;42.872;74.622;2023-03-01T03:55:56;8.90;30.70
52799;DHT22;38667;42.872;74.622;2023-03-01T03:58:23;9.10;26.10
52799;DHT22;38667;42.872;74.622;2023-03-01T04:00:51;9.30;27.80
52799;DHT22;38667;42.872;74.622;2023-03-01T04:03:19;9.40;28.20
52799;DHT22;38667;42.872;74.622;2023-03-01T04:05:46;9.60;27.00
52799;DHT22;38667;42.872;74.622;2023-03-01T04:08:13;9.80;25.10
52799;DHT22;38667;42.872;74.622;2023-03-01T04:10:43;10.10;24.20
52799;DHT22;38667;42.872;74.622;2023-03-01T04:13:11;10.20;25.60
52799;DHT22;38667;42.872;74.622;2023-03-01T04:15:38;10.30;25.60
52799;DHT22;38667;42.872;74.622;2023-03-01T04:18:06;10.40;26.30
52799;DHT22;38667;42.872;74.622;2023-03-01T04:20:34;10.50;25.80
52799;DHT22;38667;42.872;74.622;2023-03-01T04:23:02;10.60;24.70
52799;DHT22;38667;42.872;74.622;2023-03-01T04:25:29;10.70;24.30
52799;DHT22;38667;42.872;74.622;2023-03-01T04:27:56;10.80;22.60
52799;DHT22;38667;42.872;74.622;2023-03-01T04:30:23;10.90;23.20
52799;DHT22;38667;42.872;74.622;2023-03-01T04:32:49;11.00;22.80
52799;DHT22;38667;42.872;74.622;2023-03-01T04:35:15;11.10;23.10
52799;DHT22;38667;42.872;74.622;2023-03-01T04:37:42;11.20;23.60
52799;DHT22;38667;42.872;74.622;2023-03-01T04:40:09;11.30;23.10
52799;DHT22;38667;42.872;74.622;2023-03-01T04:42:36;11.40;22.50
52799;DHT22;38667;42.872;74.622;2023-03-01T04:45:05;11.60;23.30
52799;DHT22;38667;42.872;74.622;2023-03-01T04:47:31;11.60;25.40
52799;DHT22;38667;42.872;74.622;2023-03-01T04:49:57;11.90;24.00
52799;DHT22;38667;42.872;74.622;2023-03-01T04:52:24;12.00;24.70
52799;DHT22;38667;42.872;74.622;2023-03-01T04:54:50;12.10;24.90
52799;DHT22;38667;42.872;74.622;2023-03-01T04:57:16;12.20;25.80
52799;DHT22;38667;42.872;74.622;2023-03-01T04:59:43;12.40;27.20
52799;DHT22;38667;42.872;74.622;2023-03-01T05:02:10;12.50;25.30
52799;DHT22;38667;42.872;74.622;2023-03-01T05:04:37;12.50;24.90
52799;DHT22;38667;42.872;74.622;2023-03-01T05:07:03;12.60;23.30
52799;DHT22;38667;42.872;74.622;2023-03-01T05:09:29;12.60;23.80
52799;DHT22;38667;42.872;74.622;2023-03-01T05:11:56;12.60;24.00
52799;DHT22;38667;42.872;74.622;2023-03-01T05:14:22;12.60;24.00
52799;DHT22;38667;42.872;74.622;2023-03-01T05:16:48;12.80;24.60
52799;DHT22;38667;42.872;74.622;2023-03-01T05:19:16;12.90;25.20
52799;DHT22;38667;42.872;74.622;2023-03-01T05:21:43;13.20;26.10
52799;DHT22;38667;42.872;74.622;2023-03-01T05:24:09;13.30;25.80
52799;DHT22;38667;42.872;74.622;2023-03-01T05:26:35;13.50;26.00
52799;DHT22;38667;42.872;74.622;2023-03-01T05:29:01;13.60;25.40
52799;DHT22;38667;42.872;74.622;2023-03-01T05:31:28;13.80;26.10
52799;DHT22;38667;42.872;74.622;2023-03-01T05:33:54;13.90;26.20
52799;DHT22;38667;42.872;74.622;2023-03-01T05:36:22;14.00;24.40
52799;DHT22;38667;42.872;74.622;2023-03-01T05:38:48;13.90;24.70
52799;DHT22;38667;42.872;74.622;2023-03-01T05:41:15;13.90;26.20
52799;DHT22;38667;42.872;74.622;2023-03-01T05:43:41;14.10;23.90
52799;DHT22;38667;42.872;74.622;2023-03-01T05:46:08;14.30;22.30
52799;DHT22;38667;42.872;74.622;2023-03-01T05:48:34;14.30;22.40
52799;DHT22;38667;42.872;74.622;2023-03-01T05:51:01;14.40;24.30
52799;DHT22;38667;42.872;74.622;2023-03-01T05:53:29;14.60;23.50
52799;DHT22;38667;42.872;74.622;2023-03-01T05:55:55;14.60;23.10
52799;DHT22;38667;42.872;74.622;2023-03-01T05:58:21;14.50;22.90
52799;DHT22;38667;42.872;74.622;2023-03-01T06:00:48;14.60;23.30
52799;DHT22;38667;42.872;74.622;2023-03-01T06:03:16;14.80;24.50
52799;DHT22;38667;42.872;74.622;2023-03-01T06:05:43;14.90;21.90
52799;DHT22;38667;42.872;74.622;2023-03-01T06:08:10;14.90;22.20
52799;DHT22;38667;42.872;74.622;2023-03-01T06:10:39;15.00;20.50
52799;DHT22;38667;42.872;74.622;2023-03-01T06:13:05;15.10;20.10
52799;DHT22;38667;42.872;74.622;2023-03-01T06:15:32;15.30;20.30
52799;DHT22;38667;42.872;74.622;2023-03-01T06:17:58;15.50;22.40
52799;DHT22;38667;42.872;74.622;2023-03-01T06:20:25;16.00;20.80
52799;DHT22;38667;42.872;74.622;2023-03-01T06:22:52;16.90;21.80
52799;DHT22;38667;42.872;74.622;2023-03-01T06:25:20;17.70;21.20
52799;DHT22;38667;42.872;74.622;2023-03-01T06:27:48;18.70;22.00
52799;DHT22;38667;42.872;74.622;2023-03-01T06:30:17;19.60;20.40
52799;DHT22;38667;42.872;74.622;2023-03-01T06:32:43;20.00;20.10
52799;DHT22;38667;42.872;74.622;2023-03-01T06:35:11;20.00;21.20
52799;DHT22;38667;42.872;74.622;2023-03-01T06:37:38;19.50;21.40
52799;DHT22;38667;42.872;74.622;2023-03-01T06:40:06;19.10;21.00
52799;DHT22;38667;42.872;74.622;2023-03-01T06:42:32;19.20;21.80
52799;DHT22;38667;42.872;74.622;2023-03-01T06:45:00;19.40;21.70
52799;DHT22;38667;42.872;74.622;2023-03-01T06:47:26;19.10;19.90
52799;DHT22;38667;42.872;74.622;2023-03-01T06:49:53;18.70;19.60
52799;DHT22;38667;42.872;74.622;2023-03-01T06:52:19;18.40;19.50
52799;DHT22;38667;42.872;74.622;2023-03-01T06:54:45;18.60;19.80
52799;DHT22;38667;42.872;74.622;2023-03-01T06:57:12;18.70;19.70
52799;DHT22;38667;42.872;74.622;2023-03-01T06:59:38;19.10;18.60
52799;DHT22;38667;42.872;74.622;2023-03-01T07:02:06;19.80;19.20
52799;DHT22;38667;42.872;74.622;2023-03-01T07:04:32;20.10;19.10
52799;DHT22;38667;42.872;74.622;2023-03-01T07:06:58;20.00;19.00
52799;DHT22;38667;42.872;74.622;2023-03-01T07:09:25;19.90;19.10
52799;DHT22;38667;42.872;74.622;2023-03-01T07:11:51;20.10;17.10
52799;DHT22;38667;42.872;74.622;2023-03-01T07:14:17;20.10;15.50
52799;DHT22;38667;42.872;74.622;2023-03-01T07:16:44;19.70;18.20
52799;DHT22;38667;42.872;74.622;2023-03-01T07:19:13;19.50;18.30
52799;DHT22;38667;42.872;74.622;2023-03-01T07:21:39;19.40;18.60
52799;DHT22;38667;42.872;74.622;2023-03-01T07:24:06;19.40;18.80
52799;DHT22;38667;42.872;74.622;2023-03-01T07:26:33;19.70;18.50
52799;DHT22;38667;42.872;74.622;2023-03-01T07:29:00;19.70;18.90
52799;DHT22;38667;42.872;74.622;2023-03-01T07:31:27;19.40;17.80
52799;DHT22;38667;42.872;74.622;2023-03-01T07:33:53;19.00;16.20
52799;DHT22;38667;42.872;74.622;2023-03-01T07:36:23;19.00;16.60
52799;DHT22;38667;42.872;74.622;2023-03-01T07:38:50;19.10;17.40
52799;DHT22;38667;42.872;74.622;2023-03-01T07:41:16;19.40;17.00
52799;DHT22;38667;42.872;74.622;2023-03-01T07:43:42;19.80;16.50
52799;DHT22;38667;42.872;74.622;2023-03-01T07:46:08;20.20;17.30
52799;DHT22;38667;42.872;74.622;2023-03-01T07:48:35;20.70;16.80
52799;DHT22;38667;42.872;74.622;2023-03-01T07:51:02;21.00;16.40
52799;DHT22;38667;42.872;74.622;2023-03-01T07:53:31;20.50;16.10
52799;DHT22;38667;42.872;74.622;2023-03-01T07:56:02;20.10;14.50
52799;DHT22;38667;42.872;74.622;2023-03-01T07:58:28;19.80;19.50
52799;DHT22;38667;42.872;74.622;2023-03-01T08:00:54;19.60;22.80
52799;DHT22;38667;42.872;74.622;2023-03-01T08:03:21;19.70;22.80
52799;DHT22;38667;42.872;74.622;2023-03-01T08:05:47;20.20;23.80
52799;DHT22;38667;42.872;74.622;2023-03-01T08:08:13;20.60;22.40
52799;DHT22;38667;42.872;74.622;2023-03-01T08:10:41;21.30;22.50
52799;DHT22;38667;42.872;74.622;2023-03-01T08:13:07;21.50;22.00
52799;DHT22;38667;42.872;74.622;2023-03-01T08:15:34;21.20;22.10
52799;DHT22;38667;42.872;74.622;2023-03-01T08:18:00;20.90;23.30
52799;DHT22;38667;42.872;74.622;2023-03-01T08:20:26;21.10;23.80
52799;DHT22;38667;42.872;74.622;2023-03-01T08:22:52;21.50;23.60
52799;DHT22;38667;42.872;74.622;2023-03-01T08:25:19;20.80;23.80
52799;DHT22;38667;42.872;74.622;2023-03-01T08:27:47;20.90;24.10
52799;DHT22;38667;42.872;74.622;2023-03-01T08:30:13;21.50;23.70
52799;DHT22;38667;42.872;74.622;2023-03-01T08:32:40;22.80;22.20
52799;DHT22;38667;42.872;74.622;2023-03-01T08:35:07;22.80;22.90
52799;DHT22;38667;42.872;74.622;2023-03-01T08:37:33;22.50;22.70
52799;DHT22;38667;42.872;74.622;2023-03-01T08:40:00;22.80;21.70
52799;DHT22;38667;42.872;74.622;2023-03-01T08:42:26;23.10;22.60
52799;DHT22;38667;42.872;74.622;2023-03-01T08:44:54;23.40;21.70
52799;DHT22;38667;42.872;74.622;2023-03-01T08:47:21;23.90;20.40
52799;DHT22;38667;42.872;74.622;2023-03-01T08:49:48;24.30;19.90
52799;DHT22;38667;42.872;74.622;2023-03-01T08:52:15;24.20;20.20
52799;DHT22;38667;42.872;74.622;2023-03-01T08:54:41;23.40;20.30
52799;DHT22;38667;42.872;74.622;2023-03-01T08:57:07;22.20;22.90
52799;DHT22;38667;42.872;74.622;2023-03-01T08:59:34;21.40;22.10
52799;DHT22;38667;42.872;74.622;2023-03-01T09:02:01;20.80;23.50
52799;DHT22;38667;42.872;74.622;2023-03-01T09:04:28;20.30;24.20
52799;DHT22;38667;42.872;74.622;2023-03-01T09:06:54;20.10;24.90
52799;DHT22;38667;42.872;74.622;2023-03-01T09:09:20;20.70;24.00
52799;DHT22;38667;42.872;74.622;2023-03-01T09:11:47;21.10;23.50
52799;DHT22;38667;42.872;74.622;2023-03-01T09:14:14;21.30;23.00
52799;DHT22;38667;42.872;74.622;2023-03-01T09:16:40;21.60;23.60
52799;DHT22;38667;42.872;74.622;2023-03-01T09:19:08;21.70;22.90
52799;DHT22;38667;42.872;74.622;2023-03-01T09:21:34;21.70;22.80
52799;DHT22;38667;42.872;74.622;2023-03-01T09:24:01;21.60;23.60
52799;DHT22;38667;42.872;74.622;2023-03-01T09:26:27;21.40;23.80
52799;DHT22;38667;42.872;74.622;2023-03-01T09:28:55;21.60;23.40
52799;DHT22;38667;42.872;74.622;2023-03-01T09:31:23;21.50;23.20
52799;DHT22;38667;42.872;74.622;2023-03-01T09:33:52;20.90;24.00
52799;DHT22;38667;42.872;74.622;2023-03-01T09:36:22;20.40;24.50
52799;DHT22;38667;42.872;74.622;2023-03-01T09:38:49;20.20;24.90
52799;DHT22;38667;42.872;74.622;2023-03-01T09:41:28;20.00;24.80
52799;DHT22;38667;42.872;74.622;2023-03-01T09:44:01;20.60;24.20
52799;DHT22;38667;42.872;74.622;2023-03-01T09:46:40;20.80;25.00
52799;DHT22;38667;42.872;74.622;2023-03-01T09:49:12;20.70;24.20
52799;DHT22;38667;42.872;74.622;2023-03-01T09:51:42;20.90;24.30
52799;DHT22;38667;42.872;74.622;2023-03-01T09:54:11;20.90;24.20
52799;DHT22;38667;42.872;74.622;2023-03-01T09:56:39;20.70;24.40
52799;DHT22;38667;42.872;74.622;2023-03-01T09:59:15;20.90;24.30
52799;DHT22;38667;42.872;74.622;2023-03-01T10:01:48;20.50;24.10
52799;DHT22;38667;42.872;74.622;2023-03-01T10:04:29;20.10;24.90
52799;DHT22;38667;42.872;74.622;2023-03-01T10:07:17;20.30;24.20
52799;DHT22;38667;42.872;74.622;2023-03-01T10:09:47;21.00;23.70
52799;DHT22;38667;42.872;74.622;2023-03-01T10:12:17;21.50;22.10
52799;DHT22;38667;42.872;74.622;2023-03-01T10:14:51;21.90;21.50
52799;DHT22;38667;42.872;74.622;2023-03-01T10:17:24;21.20;22.30
52799;DHT22;38667;42.872;74.622;2023-03-01T10:19:51;20.80;22.60
52799;DHT22;38667;42.872;74.622;2023-03-01T10:22:20;20.80;22.70
52799;DHT22;38667;42.872;74.622;2023-03-01T10:24:47;20.90;22.60
52799;DHT22;38667;42.872;74.622;2023-03-01T10:27:17;21.70;20.70
52799;DHT22;38667;42.872;74.622;2023-03-01T10:29:50;21.60;20.80
52799;DHT22;38667;42.872;74.622;2023-03-01T10:32:21;21.80;21.20
52799;DHT22;38667;42.872;74.622;2023-03-01T10:34:48;21.50;21.20
52799;DHT22;38667;42.872;74.622;2023-03-01T10:37:16;21.00;20.00
52799;DHT22;38667;42.872;74.622;2023-03-01T10:39:57;21.70;20.60
52799;DHT22;38667;42.872;74.622;2023-03-01T10:42:28;22.30;19.80
52799;DHT22;38667;42.872;74.622;2023-03-01T10:44:54;22.50;20.00
52799;DHT22;38667;42.872;74.622;2023-03-01T10:47:22;21.60;19.50
52799;DHT22;38667;42.872;74.622;2023-03-01T10:49:58;20.80;20.00
52799;DHT22;38667;42.872;74.622;2023-03-01T10:52:33;20.50;20.00
52799;DHT22;38667;42.872;74.622;2023-03-01T10:55:03;20.10;21.10
52799;DHT22;38667;42.872;74.622;2023-03-01T10:57:33;19.50;21.00
52799;DHT22;38667;42.872;74.622;2023-03-01T11:00:18;19.30;21.60
52799;DHT22;38667;42.872;74.622;2023-03-01T11:02:48;19.40;21.90
52799;DHT22;38667;42.872;74.622;2023-03-01T11:05:20;19.80;22.90
52799;DHT22;38667;42.872;74.622;2023-03-01T11:07:48;21.00;22.70
52799;DHT22;38667;42.872;74.622;2023-03-01T11:10:19;21.80;22.50
52799;DHT22;38667;42.872;74.622;2023-03-01T11:12:46;21.60;22.70
52799;DHT22;38667;42.872;74.622;2023-03-01T11:15:24;21.80;23.20
52799;DHT22;38667;42.872;74.622;2023-03-01T11:17:51;22.20;21.80
52799;DHT22;38667;42.872;74.622;2023-03-01T11:20:25;22.40;21.80
52799;DHT22;38667;42.872;74.622;2023-03-01T11:22:54;22.00;22.50
52799;DHT22;38667;42.872;74.622;2023-03-01T11:25:25;21.60;23.00
52799;DHT22;38667;42.872;74.622;2023-03-01T11:27:52;21.10;23.60
52799;DHT22;38667;42.872;74.622;2023-03-01T11:30:22;19.90;25.30
52799;DHT22;38667;42.872;74.622;2023-03-01T11:32:57;19.10;26.50
52799;DHT22;38667;42.872;74.622;2023-03-01T11:35:26;19.20;26.30
52799;DHT22;38667;42.872;74.622;2023-03-01T11:38:03;20.30;25.30
52799;DHT22;38667;42.872;74.622;2023-03-01T11:40:35;21.60;23.90
52799;DHT22;38667;42.872;74.622;2023-03-01T11:43:15;21.30;23.40
52799;DHT22;38667;42.872;74.622;2023-03-01T11:45:53;19.70;25.10
52799;DHT22;38667;42.872;74.622;2023-03-01T11:48:43;18.50;26.10
52799;DHT22;38667;42.872;74.622;2023-03-01T11:51:19;17.70;27.60
52799;DHT22;38667;42.872;74.622;2023-03-01T11:54:05;17.30;28.10
52799;DHT22;38667;42.872;74.622;2023-03-01T11:56:38;17.10;28.40
52799;DHT22;38667;42.872;74.622;2023-03-01T11:59:24;16.90;28.30
52799;DHT22;38667;42.872;74.622;2023-03-01T12:05:00;16.50;29.20
52799;DHT22;38667;42.872;74.622;2023-03-01T12:07:35;16.30;29.00
52799;DHT22;38667;42.872;74.622;2023-03-01T12:10:22;16.10;29.30
52799;DHT22;38667;42.872;74.622;2023-03-01T12:16:00;15.90;28.90
52799;DHT22;38667;42.872;74.622;2023-03-01T12:18:47;15.80;29.70
52799;DHT22;38667;42.872;74.622;2023-03-01T12:21:25;15.60;29.30
52799;DHT22;38667;42.872;74.622;2023-03-01T12:24:29;15.50;29.80
52799;DHT22;38667;42.872;74.622;2023-03-01T12:27:09;15.30;29.70
52799;DHT22;38667;42.872;74.622;2023-03-01T12:29:43;15.20;29.80
52799;DHT22;38667;42.872;74.622;2023-03-01T12:32:32;15.10;30.20
52799;DHT22;38667;42.872;74.622;2023-03-01T12:37:58;14.70;29.80
52799;DHT22;38667;42.872;74.622;2023-03-01T12:41:00;14.50;29.90
52799;DHT22;38667;42.872;74.622;2023-03-01T12:43:39;14.30;30.50
52799;DHT22;38667;42.872;74.622;2023-03-01T12:46:20;14.20;31.10
52799;DHT22;38667;42.872;74.622;2023-03-01T12:48:51;14.10;34.20
52799;DHT22;38667;42.872;74.622;2023-03-01T12:51:24;14.00;35.50
52799;DHT22;38667;42.872;74.622;2023-03-01T12:53:54;13.90;35.80
52799;DHT22;38667;42.872;74.622;2023-03-01T12:56:23;13.80;36.40
52799;DHT22;38667;42.872;74.622;2023-03-01T12:58:57;13.60;37.60
52799;DHT22;38667;42.872;74.622;2023-03-01T13:01:36;13.50;37.60
52799;DHT22;38667;42.872;74.622;2023-03-01T13:04:20;13.40;38.60
52799;DHT22;38667;42.872;74.622;2023-03-01T13:06:55;13.30;39.10
52799;DHT22;38667;42.872;74.622;2023-03-01T13:09:28;13.20;39.30
52799;DHT22;38667;42.872;74.622;2023-03-01T13:11:56;13.20;39.60
52799;DHT22;38667;42.872;74.622;2023-03-01T13:14:45;13.10;39.50
52799;DHT22;38667;42.872;74.622;2023-03-01T13:17:33;13.00;40.60
52799;DHT22;38667;42.872;74.622;2023-03-01T13:20:13;13.00;41.50
52799;DHT22;38667;42.872;74.622;2023-03-01T13:22:40;12.90;41.20
52799;DHT22;38667;42.872;74.622;2023-03-01T13:25:15;12.80;41.60
52799;DHT22;38667;42.872;74.622;2023-03-01T13:27:42;12.80;42.30
52799;DHT22;38667;42.872;74.622;2023-03-01T13:30:40;12.70;42.10
52799;DHT22;38667;42.872;74.622;2023-03-01T13:33:40;12.70;43.20
52799;DHT22;38667;42.872;74.622;2023-03-01T13:36:08;12.60;42.90
52799;DHT22;38667;42.872;74.622;2023-03-01T13:38:44;12.60;42.80
52799;DHT22;38667;42.872;74.622;2023-03-01T13:41:11;12.50;42.90
52799;DHT22;38667;42.872;74.622;2023-03-01T13:43:38;12.50;43.00
52799;DHT22;38667;42.872;74.622;2023-03-01T13:46:20;12.40;43.10
52799;DHT22;38667;42.872;74.622;2023-03-01T13:48:50;12.40;43.30
52799;DHT22;38667;42.872;74.622;2023-03-01T13:51:22;12.40;43.60
52799;DHT22;38667;42.872;74.622;2023-03-01T13:53:49;12.30;44.30
52799;DHT22;38667;42.872;74.622;2023-03-01T13:56:19;12.30;44.10
52799;DHT22;38667;42.872;74.622;2023-03-01T13:58:50;12.30;43.60
52799;DHT22;38667;42.872;74.622;2023-03-01T14:01:24;12.20;43.10
52799;DHT22;38667;42.872;74.622;2023-03-01T14:03:52;12.20;43.10
52799;DHT22;38667;42.872;74.622;2023-03-01T14:06:21;12.10;43.30
52799;DHT22;38667;42.872;74.622;2023-03-01T14:08:51;12.00;43.50
52799;DHT22;38667;42.872;74.622;2023-03-01T14:11:41;12.00;43.60
52799;DHT22;38667;42.872;74.622;2023-03-01T14:17:30;11.80;43.90
52799;DHT22;38667;42.872;74.622;2023-03-01T14:20:07;11.70;43.90
52799;DHT22;38667;42.872;74.622;2023-03-01T14:22:35;11.50;43.70
52799;DHT22;38667;42.872;74.622;2023-03-01T14:25:05;11.50;43.80
52799;DHT22;38667;42.872;74.622;2023-03-01T14:27:36;11.40;43.40
52799;DHT22;38667;42.872;74.622;2023-03-01T14:30:09;11.30;43.40
52799;DHT22;38667;42.872;74.622;2023-03-01T14:32:36;11.30;43.30
52799;DHT22;38667;42.872;74.622;2023-03-01T14:35:20;11.20;43.20
52799;DHT22;38667;42.872;74.622;2023-03-01T14:37:46;11.20;43.00
52799;DHT22;38667;42.872;74.622;2023-03-01T14:40:22;11.10;43.00
52799;DHT22;38667;42.872;74.622;2023-03-01T14:42:48;11.10;43.00
52799;DHT22;38667;42.872;74.622;2023-03-01T14:45:14;11.00;42.60
52799;DHT22;38667;42.872;74.622;2023-03-01T14:47:41;11.00;42.90
52799;DHT22;38667;42.872;74.622;2023-03-01T14:50:18;10.90;43.00
52799;DHT22;38667;42.872;74.622;2023-03-01T14:52:48;10.90;43.20
52799;DHT22;38667;42.872;74.622;2023-03-01T14:55:18;10.80;43.30
52799;DHT22;38667;42.872;74.622;2023-03-01T14:57:46;10.80;43.40
52799;DHT22;38667;42.872;74.622;2023-03-01T15:00:18;10.80;43.70
52799;DHT22;38667;42.872;74.622;2023-03-01T15:02:47;10.70;43.80
52799;DHT22;38667;42.872;74.622;2023-03-01T15:05:16;10.70;44.00
52799;DHT22;38667;42.872;74.622;2023-03-01T15:07:44;10.70;43.80
52799;DHT22;38667;42.872;74.622;2023-03-01T15:10:17;10.60;43.90
52799;DHT22;38667;42.872;74.622;2023-03-01T15:12:45;10.60;43.80
52799;DHT22;38667;42.872;74.622;2023-03-01T15:15:30;10.50;43.60
52799;DHT22;38667;42.872;74.622;2023-03-01T15:17:59;10.50;43.40
52799;DHT22;38667;42.872;74.622;2023-03-01T15:20:28;10.50;43.40
52799;DHT22;38667;42.872;74.622;2023-03-01T15:22:56;10.50;43.40
52799;DHT22;38667;42.872;74.622;2023-03-01T15:25:24;10.40;43.40
52799;DHT22;38667;42.872;74.622;2023-03-01T15:27:52;10.40;43.40
52799;DHT22;38667;42.872;74.622;2023-03-01T15:30:22;10.30;43.50
52799;DHT22;38667;42.872;74.622;2023-03-01T15:33:15;10.30;43.00
52799;DHT22;38667;42.872;74.622;2023-03-01T15:35:41;10.30;43.20
52799;DHT22;38667;42.872;74.622;2023-03-01T15:38:26;10.20;43.20
52799;DHT22;38667;42.872;74.622;2023-03-01T15:40:54;10.20;43.30
52799;DHT22;38667;42.872;74.622;2023-03-01T15:43:41;10.10;43.40
52799;DHT22;38667;42.872;74.622;2023-03-01T15:46:20;10.10;43.30
52799;DHT22;38667;42.872;74.622;2023-03-01T15:48:47;10.00;43.10